« Back
NWS Peachtree City, Ga » Text Product » CSG Terminal Aerodrome Forecast


Printer-friendly Version
Current Version              Previous Versions:   1  2  3  4  5  6  7  8  9  

Terminal Aerodrome Forecast

537
FTUS42 KFFC 051726
TAFCSG
TAF
KCSG 051726Z 0518/0618 22007KT P6SM VCSH SCT012 BKN025
     FM052200 22006KT P6SM VCSH SCT035 BKN040
     FM060100 21004KT P6SM BKN050
     FM061000 25004KT 4SM BR SCT006 BKN012
     FM061400 28005KT P6SM BKN025
     FM061500 28005KT P6SM SCT050=

USA.gov is the U.S. government's official web portal to all federal, state and local government web resources and services.